首页
METAR-TAF:

METAR-TAF

机场 :

图兹拉国际机场

图兹拉, 波斯尼亚和黑塞哥维那

纬度: 44-33N, 经度: 018-42E, 海拔: 306米

当前天气观测

该预报发布于37分钟前的06:00 UTC
风速2节,风向多变
温度 6°C
湿度 100%
气压 1011 hPa
能見度: 0400
多云层高于200英尺
阴天层高于1200英尺
小雨, 雾

METAR: LQTZ 200600Z VRB02KT 0400 R09/0400N -RA FG BKN002 OVC012 06/06 Q1011

时间: 07:37 (06:37 UTC)

预报

该预报发布于1小时和37分钟前的05:00 UTC
预报有效从20日的 06点(UTC)到 21日的 06点(UTC)
风速6节,风向
能見度: 6000
多云层高于4000英尺
短暂存在
从 20日的 06点(UTC)到 20日的 08点(UTC)
能見度: 0500
多云层高于200英尺
小雨, 雾
几率 40% :
短暂存在
从 20日的 06点(UTC)到 20日的 13点(UTC)
能見度: 1500
多云层高于700英尺
阴天层高于2500英尺
小雨, 轻雾
几率 40% :
短暂存在
从 20日的 20点(UTC)到 21日的 06点(UTC)
能見度: 2000
轻雾
几率 30% :
短暂存在
从 21日的 02点(UTC)到 21日的 06点(UTC)
能見度: 0300
多云层高于200英尺

TAF: LQTZ 200500Z 2006/2106 09006KT 6000 BKN040 TX14/2013Z TN04/2106Z TEMPO 2006/2008 0500 -RA FG BKN002 PROB40 TEMPO 2006/2013 1500 -RA BR BKN007 OVC025 PROB40 TEMPO 2020/2106 2000 BR PROB30 TEMPO 2102/2106 0300 FG BKN002

超过4000个机场的气象观测和天气预报(METAR&TAF报告)。

可查询的气象台以黄色和红色小点在地图上表示。

将鼠标移到小点上方,可查看气象台名称。

然后点击查看天气观测和预报。

如需切换地图:点击带黑十字的绿色按钮放大地图;点击带横线的绿色按钮缩小地图;或者点击绿色箭头查看邻近地区的地图。


METAR-TAF: